MAS108 WSSS-WMKK
Flight info
| Callsign | MAS108 |
|---|---|
| Flight time | N/A |
| Altitude | 26000 |
| Route | MASBO5B MASBO A457 GUPTA GUPTA3J |
| Aircraft | B738/M-SDE2E3FGHIRWXY/LB1 |
Departure
| Time | 2026-05-08 08:43 |
|---|---|
| Airport | Singapore Changi Airport (WSSS) |
Arrival
| Time | N/A |
|---|---|
| Airport | Kuala Lumpur International Airport (WMKK) |
| Time | Latitude | Longitude | Altitude | Speed | Heading |
|---|---|---|---|---|---|
| 2026-05-08 08:10 | 1.36359 | 103.99230 | 38 ft | 0 kts | 112° |
| 2026-05-08 08:20 | 1.36364 | 103.99217 | 37 ft | 2 kts | 112° |
| 2026-05-08 08:20 | 1.36368 | 103.99208 | 37 ft | 2 kts | 112° |
| 2026-05-08 08:20 | 1.36373 | 103.99194 | 37 ft | 2 kts | 112° |
| 2026-05-08 08:21 | 1.36379 | 103.99181 | 37 ft | 2 kts | 112° |
| 2026-05-08 08:21 | 1.36385 | 103.99167 | 37 ft | 2 kts | 112° |
| 2026-05-08 08:21 | 1.36389 | 103.99158 | 37 ft | 1 kts | 112° |
| 2026-05-08 08:21 | 1.36392 | 103.99141 | 36 ft | 1 kts | 76° |
| 2026-05-08 08:22 | 1.36389 | 103.99133 | 36 ft | 1 kts | 55° |
| 2026-05-08 08:22 | 1.36381 | 103.99125 | 36 ft | 0 kts | 25° |
| 2026-05-08 08:22 | 1.36372 | 103.99123 | 37 ft | 1 kts | 14° |
| 2026-05-08 08:22 | 1.36368 | 103.99121 | 37 ft | 0 kts | 22° |
| 2026-05-08 08:25 | 1.36441 | 103.99046 | 34 ft | 0 kts | 292° |
| 2026-05-08 08:27 | 1.36441 | 103.99047 | 34 ft | 1 kts | 292° |
| 2026-05-08 08:28 | 1.36437 | 103.99056 | 34 ft | 2 kts | 292° |
| 2026-05-08 08:28 | 1.36429 | 103.99074 | 35 ft | 2 kts | 292° |
| 2026-05-08 08:28 | 1.36425 | 103.99083 | 35 ft | 2 kts | 292° |
| 2026-05-08 08:28 | 1.36420 | 103.99097 | 35 ft | 2 kts | 292° |
| 2026-05-08 08:29 | 1.36414 | 103.99110 | 36 ft | 2 kts | 292° |
| 2026-05-08 08:29 | 1.36409 | 103.99123 | 36 ft | 1 kts | 310° |
| 2026-05-08 08:29 | 1.36399 | 103.99129 | 36 ft | 1 kts | 343° |
| 2026-05-08 08:29 | 1.36387 | 103.99130 | 36 ft | 0 kts | 17° |
| 2026-05-08 08:30 | 1.36380 | 103.99127 | 37 ft | 1 kts | 25° |
| 2026-05-08 08:30 | 1.36377 | 103.99126 | 37 ft | 0 kts | 22° |
| 2026-05-08 08:34 | 1.36380 | 103.99127 | 36 ft | 1 kts | 22° |
| 2026-05-08 08:34 | 1.36386 | 103.99129 | 36 ft | 1 kts | 23° |
| 2026-05-08 08:35 | 1.36397 | 103.99135 | 36 ft | 1 kts | 24° |
| 2026-05-08 08:35 | 1.36420 | 103.99145 | 36 ft | 7 kts | 26° |
| 2026-05-08 08:35 | 1.36472 | 103.99195 | 35 ft | 11 kts | 54° |
| 2026-05-08 08:35 | 1.36516 | 103.99253 | 35 ft | 9 kts | 51° |
| 2026-05-08 08:36 | 1.36548 | 103.99294 | 34 ft | 4 kts | 53° |
| 2026-05-08 08:36 | 1.36572 | 103.99326 | 34 ft | 4 kts | 55° |
| 2026-05-08 08:36 | 1.36586 | 103.99345 | 33 ft | 6 kts | 58° |
| 2026-05-08 08:36 | 1.36578 | 103.99407 | 32 ft | 12 kts | 113° |
| 2026-05-08 08:37 | 1.36533 | 103.99505 | 32 ft | 8 kts | 113° |
| 2026-05-08 08:37 | 1.36519 | 103.99538 | 32 ft | 7 kts | 114° |
| 2026-05-08 08:37 | 1.36517 | 103.99542 | 32 ft | 0 kts | 112° |
| 2026-05-08 08:40 | 1.36513 | 103.99553 | 32 ft | 5 kts | 112° |
| 2026-05-08 08:41 | 1.36476 | 103.99644 | 32 ft | 13 kts | 110° |
| 2026-05-08 08:41 | 1.36448 | 103.99716 | 31 ft | 20 kts | 113° |
| 2026-05-08 08:41 | 1.36413 | 103.99797 | 29 ft | 13 kts | 112° |
| 2026-05-08 08:41 | 1.36345 | 103.99874 | 29 ft | 18 kts | 163° |
| 2026-05-08 08:42 | 1.36198 | 103.99889 | 31 ft | 23 kts | 191° |
| 2026-05-08 08:42 | 1.35933 | 103.99792 | 33 ft | 79 kts | 201° |
| 2026-05-08 08:42 | 1.35251 | 103.99510 | 35 ft | 152 kts | 202° |
| 2026-05-08 08:42 | 1.34017 | 103.98998 | 557 ft | 185 kts | 202° |
| 2026-05-08 08:43 | 1.32161 | 103.98194 | 2523 ft | 167 kts | 202° |
| 2026-05-08 08:43 | 1.31152 | 103.97772 | 3487 ft | 160 kts | 202° |
| 2026-05-08 08:43 | 1.29952 | 103.97263 | 4586 ft | 153 kts | 203° |
| 2026-05-08 08:44 | 1.28997 | 103.96855 | 5322 ft | 156 kts | 203° |
| 2026-05-08 08:44 | 1.27977 | 103.96417 | 5897 ft | 174 kts | 203° |
| 2026-05-08 08:44 | 1.26839 | 103.95933 | 6651 ft | 188 kts | 203° |
| 2026-05-08 08:44 | 1.25632 | 103.95425 | 7363 ft | 203 kts | 202° |
| 2026-05-08 08:45 | 1.24320 | 103.94906 | 8116 ft | 217 kts | 197° |
| 2026-05-08 08:45 | 1.22823 | 103.94752 | 8857 ft | 232 kts | 167° |
| 2026-05-08 08:45 | 1.21398 | 103.95464 | 9643 ft | 244 kts | 137° |
| 2026-05-08 08:45 | 1.20200 | 103.96644 | 10534 ft | 254 kts | 133° |
| 2026-05-08 08:46 | 1.18968 | 103.97883 | 11636 ft | 257 kts | 135° |
| 2026-05-08 08:46 | 1.17661 | 103.99095 | 12714 ft | 260 kts | 135° |
| 2026-05-08 08:46 | 1.16467 | 104.00403 | 13773 ft | 262 kts | 123° |
| 2026-05-08 08:46 | 1.15803 | 104.02042 | 14771 ft | 265 kts | 93° |
| 2026-05-08 08:47 | 1.16149 | 104.03803 | 15860 ft | 265 kts | 62° |
| 2026-05-08 08:47 | 1.17186 | 104.05291 | 16785 ft | 271 kts | 51° |
| 2026-05-08 08:47 | 1.18402 | 104.06712 | 17778 ft | 273 kts | 50° |
| 2026-05-08 08:47 | 1.19640 | 104.08089 | 18744 ft | 275 kts | 45° |
| 2026-05-08 08:48 | 1.21099 | 104.09306 | 19653 ft | 279 kts | 37° |
| 2026-05-08 08:48 | 1.22726 | 104.10323 | 20558 ft | 282 kts | 32° |
| 2026-05-08 08:48 | 1.24491 | 104.11214 | 21399 ft | 287 kts | 24° |
| 2026-05-08 08:48 | 1.26459 | 104.11743 | 21976 ft | 304 kts | 11° |
| 2026-05-08 08:49 | 1.28558 | 104.11808 | 22513 ft | 321 kts | 359° |
| 2026-05-08 08:49 | 1.30738 | 104.11405 | 22961 ft | 341 kts | 347° |
| 2026-05-08 08:49 | 1.32943 | 104.10518 | 23202 ft | 356 kts | 336° |
| 2026-05-08 08:49 | 1.34799 | 104.09351 | 22976 ft | 359 kts | 326° |
| 2026-05-08 08:50 | 1.37985 | 104.05942 | 21615 ft | 380 kts | 307° |
| 2026-05-08 08:50 | 1.39431 | 104.03802 | 21063 ft | 379 kts | 306° |
| 2026-05-08 08:50 | 1.40981 | 104.01645 | 20839 ft | 369 kts | 310° |
| 2026-05-08 08:51 | 1.42642 | 103.99656 | 20817 ft | 369 kts | 315° |
| 2026-05-08 08:51 | 1.44384 | 103.97865 | 20809 ft | 373 kts | 319° |
| 2026-05-08 08:51 | 1.46252 | 103.96147 | 20807 ft | 373 kts | 321° |
| 2026-05-08 08:51 | 1.48209 | 103.94469 | 20804 ft | 372 kts | 322° |
| 2026-05-08 08:52 | 1.49952 | 103.93025 | 20806 ft | 372 kts | 323° |